sensor_id;sensor_type;location;lat;lon;timestamp;pressure;altitude;pressure_sealevel;temperature;humidity
44988;BME280;35735;52.226;21.254;2022-09-02T00:03:47;100949.94;;;9.18;100.00
44988;BME280;35735;52.226;21.254;2022-09-02T00:08:48;100942.63;;;9.09;100.00
44988;BME280;35735;52.226;21.254;2022-09-02T00:13:49;100943.44;;;9.02;100.00
44988;BME280;35735;52.226;21.254;2022-09-02T00:18:51;100930.84;;;9.01;100.00
44988;BME280;35735;52.226;21.254;2022-09-02T00:23:52;100937.09;;;8.97;100.00
44988;BME280;35735;52.226;21.254;2022-09-02T00:28:53;100941.56;;;8.98;100.00
44988;BME280;35735;52.226;21.254;2022-09-02T00:33:54;100937.94;;;8.95;100.00
44988;BME280;35735;52.226;21.254;2022-09-02T00:38:55;100941.41;;;8.86;100.00
44988;BME280;35735;52.226;21.254;2022-09-02T00:44:05;100942.16;;;8.77;100.00
44988;BME280;35735;52.226;21.254;2022-09-02T00:49:12;100945.63;;;8.70;100.00
44988;BME280;35735;52.226;21.254;2022-09-02T00:54:20;100951.87;;;8.67;100.00
44988;BME280;35735;52.226;21.254;2022-09-02T00:59:33;100946.31;;;8.58;100.00
44988;BME280;35735;52.226;21.254;2022-09-02T01:04:34;100947.91;;;8.47;100.00
44988;BME280;35735;52.226;21.254;2022-09-02T01:09:34;100964.03;;;8.44;100.00
44988;BME280;35735;52.226;21.254;2022-09-02T01:14:35;100965.87;;;8.48;100.00
44988;BME280;35735;52.226;21.254;2022-09-02T01:19:40;100944.41;;;8.51;100.00
44988;BME280;35735;52.226;21.254;2022-09-02T01:24:43;100955.25;;;8.54;100.00
44988;BME280;35735;52.226;21.254;2022-09-02T01:29:43;100953.19;;;8.41;100.00
44988;BME280;35735;52.226;21.254;2022-09-02T01:34:44;100953.00;;;8.31;100.00
44988;BME280;35735;52.226;21.254;2022-09-02T01:39:45;100948.31;;;8.20;100.00
44988;BME280;35735;52.226;21.254;2022-09-02T01:44:46;100955.28;;;8.08;100.00
44988;BME280;35735;52.226;21.254;2022-09-02T01:49:47;100943.62;;;8.08;100.00
44988;BME280;35735;52.226;21.254;2022-09-02T01:54:48;100942.63;;;8.03;100.00
44988;BME280;35735;52.226;21.254;2022-09-02T01:59:50;100948.25;;;8.16;100.00
44988;BME280;35735;52.226;21.254;2022-09-02T02:04:51;100957.28;;;8.19;100.00
44988;BME280;35735;52.226;21.254;2022-09-02T02:09:51;100952.81;;;8.19;100.00
44988;BME280;35735;52.226;21.254;2022-09-02T02:14:52;100949.91;;;8.08;100.00
44988;BME280;35735;52.226;21.254;2022-09-02T02:19:52;100953.22;;;7.95;100.00
44988;BME280;35735;52.226;21.254;2022-09-02T02:24:53;100946.84;;;7.88;100.00
44988;BME280;35735;52.226;21.254;2022-09-02T02:29:54;100940.62;;;7.91;100.00
44988;BME280;35735;52.226;21.254;2022-09-02T02:34:54;100935.22;;;7.89;100.00
44988;BME280;35735;52.226;21.254;2022-09-02T02:39:55;100939.59;;;7.84;100.00
44988;BME280;35735;52.226;21.254;2022-09-02T02:44:55;100939.38;;;7.72;100.00
44988;BME280;35735;52.226;21.254;2022-09-02T02:49:56;100941.66;;;7.53;100.00
44988;BME280;35735;52.226;21.254;2022-09-02T02:54:56;100940.59;;;7.44;100.00
44988;BME280;35735;52.226;21.254;2022-09-02T02:59:57;100951.38;;;7.45;100.00
44988;BME280;35735;52.226;21.254;2022-09-02T03:04:57;100944.25;;;7.47;100.00
44988;BME280;35735;52.226;21.254;2022-09-02T03:09:58;100943.16;;;7.39;100.00
44988;BME280;35735;52.226;21.254;2022-09-02T03:14:59;100949.31;;;7.35;100.00
44988;BME280;35735;52.226;21.254;2022-09-02T03:19:59;100955.31;;;7.21;100.00
44988;BME280;35735;52.226;21.254;2022-09-02T03:25:00;100949.91;;;7.18;100.00
44988;BME280;35735;52.226;21.254;2022-09-02T03:30:01;100952.41;;;7.11;100.00
44988;BME280;35735;52.226;21.254;2022-09-02T03:35:03;100950.50;;;7.05;100.00
44988;BME280;35735;52.226;21.254;2022-09-02T03:40:08;100951.38;;;7.05;100.00
44988;BME280;35735;52.226;21.254;2022-09-02T03:45:12;100962.87;;;7.00;100.00
44988;BME280;35735;52.226;21.254;2022-09-02T03:50:13;100971.63;;;6.91;100.00
44988;BME280;35735;52.226;21.254;2022-09-02T03:55:15;100975.22;;;6.92;100.00
44988;BME280;35735;52.226;21.254;2022-09-02T04:00:19;100980.59;;;6.92;100.00
44988;BME280;35735;52.226;21.254;2022-09-02T04:05:21;100984.22;;;6.94;100.00
44988;BME280;35735;52.226;21.254;2022-09-02T04:10:23;100989.72;;;7.00;100.00
44988;BME280;35735;52.226;21.254;2022-09-02T04:15:23;100993.28;;;6.99;100.00
44988;BME280;35735;52.226;21.254;2022-09-02T04:20:24;100995.16;;;7.03;100.00
44988;BME280;35735;52.226;21.254;2022-09-02T04:25:24;100995.22;;;7.06;100.00
44988;BME280;35735;52.226;21.254;2022-09-02T04:30:25;100996.41;;;7.17;100.00
44988;BME280;35735;52.226;21.254;2022-09-02T04:35:26;100993.97;;;7.30;100.00
44988;BME280;35735;52.226;21.254;2022-09-02T04:40:26;100999.09;;;7.58;100.00
44988;BME280;35735;52.226;21.254;2022-09-02T04:45:27;100997.91;;;7.88;100.00
44988;BME280;35735;52.226;21.254;2022-09-02T04:50:27;101003.00;;;8.20;100.00
44988;BME280;35735;52.226;21.254;2022-09-02T04:55:28;100996.47;;;8.53;100.00
44988;BME280;35735;52.226;21.254;2022-09-02T05:00:28;101001.50;;;8.86;100.00
44988;BME280;35735;52.226;21.254;2022-09-02T05:05:29;100999.50;;;9.31;100.00
44988;BME280;35735;52.226;21.254;2022-09-02T05:10:30;100997.47;;;9.79;100.00
44988;BME280;35735;52.226;21.254;2022-09-02T05:15:31;101006.87;;;10.18;100.00
44988;BME280;35735;52.226;21.254;2022-09-02T05:20:32;101000.06;;;10.54;100.00
44988;BME280;35735;52.226;21.254;2022-09-02T05:25:32;101009.41;;;10.90;100.00
44988;BME280;35735;52.226;21.254;2022-09-02T05:30:37;101006.91;;;11.16;100.00
44988;BME280;35735;52.226;21.254;2022-09-02T05:35:40;101002.59;;;11.54;100.00
44988;BME280;35735;52.226;21.254;2022-09-02T05:40:41;101001.94;;;11.96;100.00
44988;BME280;35735;52.226;21.254;2022-09-02T05:45:42;101003.81;;;12.20;100.00
44988;BME280;35735;52.226;21.254;2022-09-02T05:50:43;101005.66;;;12.51;100.00
44988;BME280;35735;52.226;21.254;2022-09-02T05:55:43;101009.31;;;12.90;99.97
44988;BME280;35735;52.226;21.254;2022-09-02T06:00:44;101013.78;;;13.08;98.44
44988;BME280;35735;52.226;21.254;2022-09-02T06:05:55;101010.16;;;13.58;99.09
44988;BME280;35735;52.226;21.254;2022-09-02T06:10:56;101001.88;;;13.90;97.09
44988;BME280;35735;52.226;21.254;2022-09-02T06:15:57;101014.28;;;14.35;96.97
44988;BME280;35735;52.226;21.254;2022-09-02T06:20:57;101014.03;;;14.78;96.04
44988;BME280;35735;52.226;21.254;2022-09-02T06:25:58;101003.84;;;15.05;94.40
44988;BME280;35735;52.226;21.254;2022-09-02T06:30:59;101008.19;;;15.24;93.36
44988;BME280;35735;52.226;21.254;2022-09-02T06:36:08;101016.22;;;15.36;91.60
44988;BME280;35735;52.226;21.254;2022-09-02T06:41:14;101009.91;;;15.34;91.00
44988;BME280;35735;52.226;21.254;2022-09-02T06:46:21;101011.31;;;15.72;92.04
44988;BME280;35735;52.226;21.254;2022-09-02T06:51:30;101023.72;;;15.97;89.57
44988;BME280;35735;52.226;21.254;2022-09-02T06:56:33;101025.50;;;16.02;88.97
44988;BME280;35735;52.226;21.254;2022-09-02T07:01:34;101027.50;;;15.85;87.56
44988;BME280;35735;52.226;21.254;2022-09-02T07:06:36;101029.28;;;15.89;88.03
44988;BME280;35735;52.226;21.254;2022-09-02T07:11:39;101027.94;;;16.22;87.96
44988;BME280;35735;52.226;21.254;2022-09-02T07:16:43;101030.84;;;16.72;87.03
44988;BME280;35735;52.226;21.254;2022-09-02T07:21:47;101033.94;;;17.08;85.65
44988;BME280;35735;52.226;21.254;2022-09-02T07:26:48;101029.97;;;17.26;84.94
44988;BME280;35735;52.226;21.254;2022-09-02T07:31:49;101029.34;;;17.60;85.02
44988;BME280;35735;52.226;21.254;2022-09-02T07:36:50;101033.25;;;17.93;83.21
44988;BME280;35735;52.226;21.254;2022-09-02T07:41:50;101035.34;;;18.24;83.06
44988;BME280;35735;52.226;21.254;2022-09-02T07:46:51;101032.88;;;18.52;81.35
44988;BME280;35735;52.226;21.254;2022-09-02T07:51:52;101039.50;;;18.81;80.67
44988;BME280;35735;52.226;21.254;2022-09-02T07:56:53;101039.56;;;19.16;79.51
44988;BME280;35735;52.226;21.254;2022-09-02T08:01:54;101033.09;;;19.20;76.72
44988;BME280;35735;52.226;21.254;2022-09-02T08:06:54;101033.16;;;19.17;75.26
44988;BME280;35735;52.226;21.254;2022-09-02T08:11:55;101032.75;;;19.32;74.54
44988;BME280;35735;52.226;21.254;2022-09-02T08:16:56;101031.31;;;19.52;74.95
44988;BME280;35735;52.226;21.254;2022-09-02T08:22:02;101033.28;;;19.47;71.82
44988;BME280;35735;52.226;21.254;2022-09-02T08:27:03;101029.28;;;19.60;71.34
44988;BME280;35735;52.226;21.254;2022-09-02T08:32:04;101024.94;;;19.86;71.15
44988;BME280;35735;52.226;21.254;2022-09-02T08:37:05;101022.12;;;20.18;71.14
44988;BME280;35735;52.226;21.254;2022-09-02T08:42:22;101022.59;;;20.33;67.86
44988;BME280;35735;52.226;21.254;2022-09-02T08:47:30;101025.16;;;20.39;67.41
44988;BME280;35735;52.226;21.254;2022-09-02T08:57:59;101013.56;;;20.87;66.66
44988;BME280;35735;52.226;21.254;2022-09-02T09:03:22;101014.56;;;21.12;64.77
44988;BME280;35735;52.226;21.254;2022-09-02T09:08:32;101000.53;;;21.48;65.19
44988;BME280;35735;52.226;21.254;2022-09-02T09:24:27;101003.25;;;20.67;58.35
44988;BME280;35735;52.226;21.254;2022-09-02T09:29:37;100997.00;;;20.64;57.88
44988;BME280;35735;52.226;21.254;2022-09-02T09:34:58;100993.97;;;20.43;54.06
44988;BME280;35735;52.226;21.254;2022-09-02T09:40:00;101000.66;;;20.33;54.66
44988;BME280;35735;52.226;21.254;2022-09-02T09:45:34;100996.66;;;20.15;54.83
44988;BME280;35735;52.226;21.254;2022-09-02T09:50:37;100990.94;;;20.23;56.65
44988;BME280;35735;52.226;21.254;2022-09-02T09:55:49;100983.78;;;20.47;57.69
44988;BME280;35735;52.226;21.254;2022-09-02T10:00:51;100990.56;;;20.65;54.95
44988;BME280;35735;52.226;21.254;2022-09-02T10:05:53;100983.34;;;20.61;56.10
44988;BME280;35735;52.226;21.254;2022-09-02T10:11:19;100981.28;;;20.69;52.55
44988;BME280;35735;52.226;21.254;2022-09-02T10:16:43;100972.72;;;20.22;53.29
44988;BME280;35735;52.226;21.254;2022-09-02T10:22:08;100971.56;;;20.57;53.07
44988;BME280;35735;52.226;21.254;2022-09-02T10:33:33;100969.47;;;20.37;52.54
44988;BME280;35735;52.226;21.254;2022-09-02T10:38:43;100959.16;;;20.45;52.54
44988;BME280;35735;52.226;21.254;2022-09-02T10:44:03;100964.12;;;20.61;53.35
44988;BME280;35735;52.226;21.254;2022-09-02T10:55:35;100956.16;;;20.81;53.20
44988;BME280;35735;52.226;21.254;2022-09-02T11:00:56;100960.59;;;21.12;52.64
44988;BME280;35735;52.226;21.254;2022-09-02T11:06:03;100961.00;;;21.26;51.96
44988;BME280;35735;52.226;21.254;2022-09-02T11:22:26;100941.50;;;21.09;53.19
44988;BME280;35735;52.226;21.254;2022-09-02T11:38:33;100938.28;;;21.72;52.80
44988;BME280;35735;52.226;21.254;2022-09-02T11:43:44;100935.91;;;21.86;51.61
44988;BME280;35735;52.226;21.254;2022-09-02T11:49:19;100941.13;;;21.70;50.26
44988;BME280;35735;52.226;21.254;2022-09-02T11:54:42;100933.22;;;21.10;51.05
44988;BME280;35735;52.226;21.254;2022-09-02T12:05:40;100919.25;;;20.91;51.36
44988;BME280;35735;52.226;21.254;2022-09-02T12:15:41;100900.88;;;21.19;52.06
44988;BME280;35735;52.226;21.254;2022-09-02T12:25:55;100903.22;;;21.29;49.72
44988;BME280;35735;52.226;21.254;2022-09-02T12:35:57;100900.97;;;20.90;49.86
44988;BME280;35735;52.226;21.254;2022-09-02T12:46:33;100901.63;;;20.44;50.91
44988;BME280;35735;52.226;21.254;2022-09-02T12:51:56;100894.63;;;20.35;51.97
44988;BME280;35735;52.226;21.254;2022-09-02T12:56:58;100883.66;;;20.35;51.36
44988;BME280;35735;52.226;21.254;2022-09-02T13:08:01;100882.41;;;20.45;51.79
44988;BME280;35735;52.226;21.254;2022-09-02T13:24:52;100879.81;;;20.94;50.52
44988;BME280;35735;52.226;21.254;2022-09-02T13:30:13;100880.63;;;20.71;50.75
44988;BME280;35735;52.226;21.254;2022-09-02T13:35:22;100869.66;;;20.43;50.05
44988;BME280;35735;52.226;21.254;2022-09-02T13:40:32;100871.59;;;20.12;50.94
44988;BME280;35735;52.226;21.254;2022-09-02T13:45:34;100865.88;;;19.92;52.18
44988;BME280;35735;52.226;21.254;2022-09-02T13:50:40;100856.09;;;19.83;52.57
44988;BME280;35735;52.226;21.254;2022-09-02T13:55:49;100857.91;;;19.83;53.89
44988;BME280;35735;52.226;21.254;2022-09-02T14:00:51;100844.50;;;19.73;52.91
44988;BME280;35735;52.226;21.254;2022-09-02T14:05:53;100838.97;;;19.76;52.73
44988;BME280;35735;52.226;21.254;2022-09-02T14:10:55;100845.94;;;19.87;53.15
44988;BME280;35735;52.226;21.254;2022-09-02T14:16:26;100824.59;;;19.98;53.28
44988;BME280;35735;52.226;21.254;2022-09-02T14:21:26;100821.34;;;20.13;52.72
44988;BME280;35735;52.226;21.254;2022-09-02T14:26:40;100811.00;;;20.22;52.77
44988;BME280;35735;52.226;21.254;2022-09-02T14:31:42;100819.13;;;20.25;50.76
44988;BME280;35735;52.226;21.254;2022-09-02T14:36:43;100817.53;;;20.17;52.26
44988;BME280;35735;52.226;21.254;2022-09-02T14:41:54;100821.09;;;20.20;51.82
44988;BME280;35735;52.226;21.254;2022-09-02T14:46:58;100819.63;;;20.09;50.98
44988;BME280;35735;52.226;21.254;2022-09-02T14:52:09;100830.09;;;19.96;51.88
44988;BME280;35735;52.226;21.254;2022-09-02T14:57:30;100827.69;;;19.86;51.98
44988;BME280;35735;52.226;21.254;2022-09-02T15:02:34;100828.06;;;19.73;52.80
44988;BME280;35735;52.226;21.254;2022-09-02T15:07:35;100833.72;;;19.67;51.99
44988;BME280;35735;52.226;21.254;2022-09-02T15:12:56;100827.84;;;19.51;52.88
44988;BME280;35735;52.226;21.254;2022-09-02T15:17:57;100818.97;;;19.43;53.88
44988;BME280;35735;52.226;21.254;2022-09-02T15:22:57;100823.69;;;19.38;55.10
44988;BME280;35735;52.226;21.254;2022-09-02T15:27:58;100820.13;;;19.34;55.41
44988;BME280;35735;52.226;21.254;2022-09-02T15:33:03;100816.44;;;19.35;56.19
44988;BME280;35735;52.226;21.254;2022-09-02T15:38:04;100811.44;;;19.20;57.09
44988;BME280;35735;52.226;21.254;2022-09-02T15:43:05;100808.91;;;19.12;59.13
44988;BME280;35735;52.226;21.254;2022-09-02T15:48:05;100804.16;;;19.19;58.36
44988;BME280;35735;52.226;21.254;2022-09-02T15:53:06;100805.88;;;19.23;58.21
44988;BME280;35735;52.226;21.254;2022-09-02T15:58:06;100803.16;;;19.23;58.66
44988;BME280;35735;52.226;21.254;2022-09-02T16:03:07;100807.66;;;19.24;59.02
44988;BME280;35735;52.226;21.254;2022-09-02T16:08:08;100807.47;;;19.30;60.15
44988;BME280;35735;52.226;21.254;2022-09-02T16:13:09;100800.13;;;19.32;60.72
44988;BME280;35735;52.226;21.254;2022-09-02T16:18:10;100795.53;;;19.33;61.26
44988;BME280;35735;52.226;21.254;2022-09-02T16:23:10;100802.09;;;19.27;61.43
44988;BME280;35735;52.226;21.254;2022-09-02T16:28:11;100792.97;;;19.28;61.53
44988;BME280;35735;52.226;21.254;2022-09-02T16:33:11;100802.28;;;19.21;61.85
44988;BME280;35735;52.226;21.254;2022-09-02T16:38:12;100798.88;;;19.13;63.66
44988;BME280;35735;52.226;21.254;2022-09-02T16:43:13;100793.59;;;19.06;64.24
44988;BME280;35735;52.226;21.254;2022-09-02T16:48:13;100805.53;;;19.02;65.69
44988;BME280;35735;52.226;21.254;2022-09-02T16:53:15;100803.22;;;18.88;66.98
44988;BME280;35735;52.226;21.254;2022-09-02T16:58:15;100807.31;;;18.70;68.32
44988;BME280;35735;52.226;21.254;2022-09-02T17:03:16;100804.25;;;18.50;70.04
44988;BME280;35735;52.226;21.254;2022-09-02T17:08:16;100805.69;;;18.29;71.06
44988;BME280;35735;52.226;21.254;2022-09-02T17:13:17;100813.63;;;18.04;72.55
44988;BME280;35735;52.226;21.254;2022-09-02T17:18:17;100814.31;;;17.74;73.82
44988;BME280;35735;52.226;21.254;2022-09-02T17:23:18;100816.59;;;17.52;74.93
44988;BME280;35735;52.226;21.254;2022-09-02T17:28:18;100816.22;;;17.29;76.18
44988;BME280;35735;52.226;21.254;2022-09-02T17:33:19;100816.87;;;16.98;77.24
44988;BME280;35735;52.226;21.254;2022-09-02T17:38:19;100817.31;;;16.73;77.79
44988;BME280;35735;52.226;21.254;2022-09-02T17:43:20;100819.50;;;16.53;78.86
44988;BME280;35735;52.226;21.254;2022-09-02T17:48:21;100818.03;;;16.33;79.69
44988;BME280;35735;52.226;21.254;2022-09-02T17:53:21;100823.87;;;16.08;80.37
44988;BME280;35735;52.226;21.254;2022-09-02T17:58:22;100826.16;;;15.80;81.48
44988;BME280;35735;52.226;21.254;2022-09-02T18:03:33;100829.19;;;15.59;82.36
44988;BME280;35735;52.226;21.254;2022-09-02T18:08:53;100834.06;;;15.32;82.79
44988;BME280;35735;52.226;21.254;2022-09-02T18:14:11;100826.09;;;15.15;83.65
44988;BME280;35735;52.226;21.254;2022-09-02T18:19:51;100832.50;;;15.11;84.07
44988;BME280;35735;52.226;21.254;2022-09-02T18:47:11;100844.38;;;14.06;87.18
44988;BME280;35735;52.226;21.254;2022-09-02T18:52:15;100841.78;;;13.87;88.04
44988;BME280;35735;52.226;21.254;2022-09-02T18:57:16;100848.22;;;13.68;88.50
44988;BME280;35735;52.226;21.254;2022-09-02T19:02:26;100856.53;;;13.45;89.27
44988;BME280;35735;52.226;21.254;2022-09-02T19:07:32;100852.03;;;13.36;90.10
44988;BME280;35735;52.226;21.254;2022-09-02T19:12:33;100847.53;;;13.23;90.35
44988;BME280;35735;52.226;21.254;2022-09-02T19:17:36;100841.28;;;13.10;90.93
44988;BME280;35735;52.226;21.254;2022-09-02T19:22:43;100836.81;;;12.96;91.24
44988;BME280;35735;52.226;21.254;2022-09-02T19:27:47;100845.84;;;12.89;91.63
44988;BME280;35735;52.226;21.254;2022-09-02T19:32:51;100848.59;;;12.72;92.03
44988;BME280;35735;52.226;21.254;2022-09-02T19:37:53;100855.81;;;12.64;92.34
44988;BME280;35735;52.226;21.254;2022-09-02T19:42:54;100855.81;;;12.61;92.83
44988;BME280;35735;52.226;21.254;2022-09-02T19:47:55;100854.94;;;12.54;92.64
44988;BME280;35735;52.226;21.254;2022-09-02T19:52:56;100848.66;;;12.37;93.00
44988;BME280;35735;52.226;21.254;2022-09-02T19:57:57;100855.84;;;12.27;93.45
44988;BME280;35735;52.226;21.254;2022-09-02T20:02:58;100853.13;;;12.04;93.78
44988;BME280;35735;52.226;21.254;2022-09-02T20:07:58;100859.38;;;11.86;94.35
44988;BME280;35735;52.226;21.254;2022-09-02T20:12:59;100862.97;;;11.66;94.85
44988;BME280;35735;52.226;21.254;2022-09-02T20:18:11;100864.75;;;11.55;95.50
44988;BME280;35735;52.226;21.254;2022-09-02T20:23:14;100864.72;;;11.52;95.49
44988;BME280;35735;52.226;21.254;2022-09-02T20:28:23;100863.81;;;11.50;95.85
44988;BME280;35735;52.226;21.254;2022-09-02T20:33:29;100868.28;;;11.42;95.82
44988;BME280;35735;52.226;21.254;2022-09-02T20:38:56;100864.63;;;11.29;96.10
44988;BME280;35735;52.226;21.254;2022-09-02T20:44:34;100866.41;;;11.21;96.28
44988;BME280;35735;52.226;21.254;2022-09-02T20:50:12;100866.31;;;11.02;96.52
44988;BME280;35735;52.226;21.254;2022-09-02T20:55:38;100874.34;;;10.88;96.83
44988;BME280;35735;52.226;21.254;2022-09-02T21:06:00;100868.88;;;10.76;97.28
44988;BME280;35735;52.226;21.254;2022-09-02T21:11:06;100881.44;;;10.74;97.36
44988;BME280;35735;52.226;21.254;2022-09-02T21:16:10;100880.47;;;10.60;97.26
44988;BME280;35735;52.226;21.254;2022-09-02T21:26:58;100889.38;;;10.46;97.87
44988;BME280;35735;52.226;21.254;2022-09-02T21:37:37;100878.34;;;10.25;98.23
44988;BME280;35735;52.226;21.254;2022-09-02T21:53:33;100874.37;;;9.82;99.23
44988;BME280;35735;52.226;21.254;2022-09-02T21:59:03;100872.59;;;9.85;99.60
44988;BME280;35735;52.226;21.254;2022-09-02T22:04:29;100873.44;;;9.79;99.77
44988;BME280;35735;52.226;21.254;2022-09-02T22:09:38;100868.84;;;9.70;99.78
44988;BME280;35735;52.226;21.254;2022-09-02T22:19:43;100874.06;;;9.55;100.00
44988;BME280;35735;52.226;21.254;2022-09-02T22:24:44;100873.06;;;9.46;100.00
44988;BME280;35735;52.226;21.254;2022-09-02T22:29:55;100879.31;;;9.42;100.00
44988;BME280;35735;52.226;21.254;2022-09-02T22:35:15;100877.47;;;9.38;100.00
44988;BME280;35735;52.226;21.254;2022-09-02T22:40:18;100878.22;;;9.26;100.00
44988;BME280;35735;52.226;21.254;2022-09-02T22:45:29;100878.16;;;9.23;100.00
44988;BME280;35735;52.226;21.254;2022-09-02T22:50:37;100877.22;;;9.20;100.00
44988;BME280;35735;52.226;21.254;2022-09-02T22:55:58;100874.31;;;9.03;100.00
44988;BME280;35735;52.226;21.254;2022-09-02T23:01:14;100875.16;;;8.97;100.00
44988;BME280;35735;52.226;21.254;2022-09-02T23:06:27;100880.41;;;8.89;100.00
44988;BME280;35735;52.226;21.254;2022-09-02T23:11:41;100875.88;;;8.87;100.00
44988;BME280;35735;52.226;21.254;2022-09-02T23:22:56;100877.53;;;8.76;100.00
44988;BME280;35735;52.226;21.254;2022-09-02T23:28:25;100868.34;;;8.61;100.00
44988;BME280;35735;52.226;21.254;2022-09-02T23:33:55;100875.44;;;8.56;100.00
44988;BME280;35735;52.226;21.254;2022-09-02T23:39:26;100886.09;;;8.50;100.00
44988;BME280;35735;52.226;21.254;2022-09-02T23:44:59;100881.31;;;8.33;100.00
